createdAt,value
2023-08-11T00:01:06.138Z,100245.75
2023-08-11T00:03:34.431Z,100244.88
2023-08-11T00:06:01.133Z,100247.34
2023-08-11T00:08:27.908Z,100242.81
2023-08-11T00:10:54.536Z,100247.47
2023-08-11T00:13:21.142Z,100243.72
2023-08-11T00:15:47.793Z,100239.19
2023-08-11T00:18:14.430Z,100244.00
2023-08-11T00:20:42.552Z,100240.91
2023-08-11T00:23:09.156Z,100233.97
2023-08-11T00:25:35.780Z,100237.56
2023-08-11T00:28:02.392Z,100229.00
2023-08-11T00:30:29.028Z,100235.38
2023-08-11T00:32:55.724Z,100229.59
2023-08-11T00:35:22.657Z,100229.00
2023-08-11T00:37:50.868Z,100231.03
2023-08-11T00:40:17.733Z,100230.00
2023-08-11T00:42:44.604Z,100228.84
2023-08-11T00:45:11.213Z,100225.06
2023-08-11T00:47:41.036Z,100226.19
2023-08-11T00:50:08.637Z,100216.47
2023-08-11T00:52:35.550Z,100215.91
2023-08-11T00:55:04.672Z,100214.75
2023-08-11T00:57:31.293Z,100211.38
2023-08-11T00:59:59.088Z,100206.28
2023-08-11T01:02:25.921Z,100211.59
2023-08-11T01:04:52.756Z,100204.34
2023-08-11T01:07:24.217Z,100205.78
2023-08-11T01:09:59.965Z,100202.31
2023-08-11T01:12:35.531Z,100203.75
2023-08-11T01:15:11.405Z,100196.81
2023-08-11T01:17:39.974Z,100202.69
2023-08-11T01:20:08.829Z,100194.88
2023-08-11T01:22:37.337Z,100197.25
2023-08-11T01:25:07.380Z,100204.63
2023-08-11T01:27:36.031Z,100208.81
2023-08-11T01:30:02.739Z,100207.41
2023-08-11T01:32:29.361Z,100205.78
2023-08-11T01:34:56.113Z,100194.78
2023-08-11T01:37:23.012Z,100197.25
2023-08-11T01:39:49.661Z,100201.88
2023-08-11T01:42:17.830Z,100199.84
2023-08-11T01:44:44.630Z,100202.03
2023-08-11T01:47:11.595Z,100194.66
2023-08-11T01:49:38.363Z,100189.75
2023-08-11T01:52:05.408Z,100189.75
2023-08-11T01:54:32.085Z,100188.34
2023-08-11T01:56:59.181Z,100178.66
2023-08-11T01:59:27.182Z,100185.16
2023-08-11T02:01:53.924Z,100174.13
2023-08-11T02:04:20.666Z,100171.97
2023-08-11T02:06:47.261Z,100174.28
2023-08-11T02:09:13.838Z,100169.91
2023-08-11T02:11:40.990Z,100168.91
2023-08-11T02:14:07.617Z,100177.16
2023-08-11T02:16:36.875Z,100174.88
2023-08-11T02:19:03.870Z,100173.25
2023-08-11T02:21:30.460Z,100162.41
2023-08-11T02:23:57.285Z,100173.13
2023-08-11T02:26:24.016Z,100164.41
2023-08-11T02:28:50.840Z,100167.63
2023-08-11T02:31:17.816Z,100161.66
2023-08-11T02:33:46.052Z,100162.69
2023-08-11T02:36:12.764Z,100158.34
2023-08-11T02:38:39.502Z,100161.66
2023-08-11T02:41:06.126Z,100166.31
2023-08-11T02:43:33.102Z,100169.06
2023-08-11T02:45:59.719Z,100164.13
2023-08-11T02:48:26.371Z,100157.47
2023-08-11T02:50:54.472Z,100164.88
2023-08-11T02:53:21.093Z,100163.72
2023-08-11T02:55:47.692Z,100164.94
2023-08-11T02:58:14.341Z,100161.66
2023-08-11T03:00:40.913Z,100160.72
2023-08-11T03:03:07.605Z,100159.63
2023-08-11T03:05:34.659Z,100155.72
2023-08-11T03:08:02.916Z,100149.47
2023-08-11T03:10:32.664Z,100149.47
2023-08-11T03:13:03.933Z,100152.97
2023-08-11T03:15:30.651Z,100151.38
2023-08-11T03:17:57.346Z,100147.72
2023-08-11T03:20:24.167Z,100135.25
2023-08-11T03:22:50.766Z,100136.28
2023-08-11T03:25:18.744Z,100142.66
2023-08-11T03:27:45.517Z,100139.03
2023-08-11T03:30:13.368Z,100138.47
2023-08-11T03:32:40.618Z,100143.09
2023-08-11T03:35:08.122Z,100136.44
2023-08-11T03:37:35.301Z,100146.28
2023-08-11T03:40:02.092Z,100147.03
2023-08-11T03:42:30.059Z,100149.03
2023-08-11T03:44:56.887Z,100143.53
2023-08-11T03:47:23.513Z,100152.41
2023-08-11T03:49:50.287Z,100151.78
2023-08-11T03:52:16.893Z,100152.25
2023-08-11T03:54:45.552Z,100155.97
2023-08-11T03:57:12.678Z,100160.91
2023-08-11T03:59:40.633Z,100157.69
2023-08-11T04:02:07.462Z,100155.66
2023-08-11T04:04:34.393Z,100158.41
2023-08-11T04:07:01.027Z,100154.69
2023-08-11T04:09:27.644Z,100157.88
2023-08-11T04:11:54.478Z,100153.41
2023-08-11T04:14:21.089Z,100158.34
2023-08-11T04:16:49.181Z,100148.63
2023-08-11T04:19:15.989Z,100152.41
2023-08-11T04:21:42.656Z,100153.59
2023-08-11T04:24:10.163Z,100142.13
2023-08-11T04:26:36.776Z,100145.31
2023-08-11T04:29:03.765Z,100142.13
2023-08-11T04:31:30.707Z,100153.03
2023-08-11T04:33:58.744Z,100149.41
2023-08-11T04:36:25.425Z,100149.97
2023-08-11T04:38:52.369Z,100149.69
2023-08-11T04:41:19.010Z,100145.19
2023-08-11T04:43:45.696Z,100150.22
2023-08-11T04:46:12.384Z,100146.88
2023-08-11T04:48:39.027Z,100138.41
2023-08-11T04:51:07.035Z,100151.81
2023-08-11T04:53:33.786Z,100150.72
2023-08-11T04:56:00.641Z,100143.50
2023-08-11T04:58:27.274Z,100136.84
2023-08-11T05:00:53.899Z,100134.53
2023-08-11T05:03:20.783Z,100143.13
2023-08-11T05:05:47.492Z,100148.38
2023-08-11T05:08:15.609Z,100142.25
2023-08-11T05:10:42.238Z,100141.56
2023-08-11T05:13:08.868Z,100145.97
2023-08-11T05:15:35.507Z,100152.38
2023-08-11T05:18:02.242Z,100154.84
2023-08-11T05:20:28.888Z,100157.63
2023-08-11T05:22:55.493Z,100152.47
2023-08-11T05:25:23.612Z,100156.94
2023-08-11T05:27:50.198Z,100146.78
2023-08-11T05:30:17.181Z,100151.84
2023-08-11T05:32:44.076Z,100156.19
2023-08-11T05:35:10.761Z,100153.31
2023-08-11T05:37:37.411Z,100157.41
2023-08-11T05:40:04.730Z,100154.00
2023-08-11T05:42:33.783Z,100156.13
2023-08-11T05:45:00.387Z,100166.38
2023-08-11T05:47:27.048Z,100155.34
2023-08-11T05:49:53.908Z,100158.06
2023-08-11T05:52:20.595Z,100158.59
2023-08-11T05:54:47.207Z,100157.00
2023-08-11T05:57:13.883Z,100146.38
2023-08-11T05:59:41.889Z,100158.25
2023-08-11T06:02:08.538Z,100148.38
2023-08-11T06:04:36.292Z,100148.03
2023-08-11T06:07:03.066Z,100150.97
2023-08-11T06:09:29.966Z,100141.56
2023-08-11T06:11:58.538Z,100140.50
2023-08-11T06:14:25.328Z,100138.09
2023-08-11T06:16:53.310Z,100145.28
2023-08-11T06:19:21.546Z,100150.88
2023-08-11T06:21:48.277Z,100140.72
2023-08-11T06:24:14.937Z,100137.25
2023-08-11T06:26:41.640Z,100139.94
2023-08-11T06:29:08.308Z,100139.91
2023-08-11T06:31:36.606Z,100138.25
2023-08-11T06:34:04.787Z,100137.78
2023-08-11T06:36:31.454Z,100132.88
2023-08-11T06:38:58.360Z,100136.84
2023-08-11T06:41:25.352Z,100139.75
2023-08-11T06:43:51.999Z,100131.13
2023-08-11T06:46:18.669Z,100145.28
2023-08-11T06:48:48.353Z,100134.06
2023-08-11T06:51:16.356Z,100134.84
2023-08-11T06:53:42.985Z,100135.00
2023-08-11T06:56:10.136Z,100137.19
2023-08-11T06:58:36.792Z,100134.22
2023-08-11T07:01:03.457Z,100130.88
2023-08-11T07:03:30.297Z,100128.16
2023-08-11T07:05:57.023Z,100129.41
2023-08-11T07:08:25.101Z,100144.06
2023-08-11T07:10:51.742Z,100141.22
2023-08-11T07:13:18.664Z,100139.09
2023-08-11T07:15:45.374Z,100134.88
2023-08-11T07:18:12.464Z,100133.22
2023-08-11T07:20:41.787Z,100147.03
2023-08-11T07:23:08.511Z,100140.56
2023-08-11T07:25:36.893Z,100149.66
2023-08-11T07:28:04.211Z,100152.66
2023-08-11T07:30:30.860Z,100147.28
2023-08-11T07:32:57.995Z,100145.97
2023-08-11T07:35:24.953Z,100153.94
2023-08-11T07:37:51.589Z,100159.13
2023-08-11T07:40:20.303Z,100150.94
2023-08-11T07:42:55.845Z,100153.31
2023-08-11T07:45:22.492Z,100146.19
2023-08-11T07:47:51.975Z,100154.41
2023-08-11T07:50:18.817Z,100149.84
2023-08-11T07:52:45.483Z,100144.19
2023-08-11T07:55:12.251Z,100155.19
2023-08-11T07:57:39.411Z,100151.50
2023-08-11T08:00:08.618Z,100162.13
2023-08-11T08:02:35.319Z,100159.13
2023-08-11T08:05:11.651Z,100169.00
2023-08-11T08:07:39.769Z,100156.00
2023-08-11T08:10:08.739Z,100163.81
2023-08-11T08:12:37.161Z,100162.69
2023-08-11T08:15:05.354Z,100168.44
2023-08-11T08:17:33.435Z,100167.59
2023-08-11T08:20:00.147Z,100172.44
2023-08-11T08:22:26.987Z,100168.31
2023-08-11T08:24:53.710Z,100175.44
2023-08-11T08:27:20.435Z,100173.34
2023-08-11T08:29:49.370Z,100177.09
2023-08-11T08:32:16.033Z,100177.06
2023-08-11T08:34:44.068Z,100180.03
2023-08-11T08:37:10.944Z,100177.66
2023-08-11T08:39:42.205Z,100179.91
2023-08-11T08:42:09.990Z,100176.09
2023-08-11T08:44:37.636Z,100175.78
2023-08-11T08:47:10.358Z,100172.91
2023-08-11T08:49:37.471Z,100169.13
2023-08-11T08:52:06.856Z,100174.13
2023-08-11T08:54:33.737Z,100168.28
2023-08-11T08:57:01.481Z,100163.75
2023-08-11T08:59:28.626Z,100171.03
2023-08-11T09:01:55.715Z,100171.06
2023-08-11T09:04:23.649Z,100179.84
2023-08-11T09:06:53.376Z,100173.75
2023-08-11T09:09:21.359Z,100182.41
2023-08-11T09:11:48.149Z,100182.78
2023-08-11T09:14:20.750Z,100175.78
2023-08-11T09:16:47.684Z,100172.13
2023-08-11T09:19:14.384Z,100171.78
2023-08-11T09:21:42.092Z,100175.72
2023-08-11T09:24:10.019Z,100169.53
2023-08-11T09:26:38.139Z,100178.22
2023-08-11T09:29:05.553Z,100173.22
2023-08-11T09:31:32.337Z,100167.66
2023-08-11T09:34:11.538Z,100166.50
2023-08-11T09:36:38.195Z,100165.53
2023-08-11T09:39:07.978Z,100162.59
2023-08-11T09:41:40.811Z,100167.53
2023-08-11T09:44:07.749Z,100168.00
2023-08-11T09:46:37.340Z,100171.47
2023-08-11T09:49:04.309Z,100173.19
2023-08-11T09:51:33.986Z,100174.63
2023-08-11T09:54:04.351Z,100170.72
2023-08-11T09:56:32.465Z,100159.59
2023-08-11T09:59:03.295Z,100168.97
2023-08-11T10:01:34.451Z,100180.16
2023-08-11T10:04:05.957Z,100178.06
2023-08-11T10:06:33.229Z,100169.63
2023-08-11T10:09:11.050Z,100168.06
2023-08-11T10:11:38.210Z,100164.06
2023-08-11T10:14:06.486Z,100161.25
2023-08-11T10:16:33.941Z,100153.13
2023-08-11T10:19:01.969Z,100166.28
2023-08-11T10:21:28.787Z,100161.78
2023-08-11T10:23:55.614Z,100158.03
2023-08-11T10:26:23.193Z,100157.00
2023-08-11T10:28:51.703Z,100147.38
2023-08-11T10:31:23.398Z,100149.88
2023-08-11T10:33:50.874Z,100143.19
2023-08-11T10:36:22.994Z,100148.16
2023-08-11T10:39:00.428Z,100150.09
2023-08-11T10:41:28.542Z,100134.75
2023-08-11T10:43:58.594Z,100139.97
2023-08-11T10:46:33.040Z,100148.09
2023-08-11T10:49:21.482Z,100142.44
2023-08-11T10:51:51.223Z,100132.47
2023-08-11T10:54:23.806Z,100138.81
2023-08-11T10:56:52.779Z,100139.41
2023-08-11T10:59:22.814Z,100139.97
2023-08-11T11:01:54.058Z,100141.19
2023-08-11T11:04:22.599Z,100147.22
2023-08-11T11:06:50.516Z,100139.97
2023-08-11T11:09:19.172Z,100145.91
2023-08-11T11:11:47.465Z,100148.69
2023-08-11T11:14:14.478Z,100157.44
2023-08-11T11:16:41.806Z,100153.59
2023-08-11T11:19:10.878Z,100143.50
2023-08-11T11:21:39.881Z,100149.44
2023-08-11T11:24:09.651Z,100144.72
2023-08-11T11:26:36.322Z,100147.75
2023-08-11T11:29:04.977Z,100148.00
2023-08-11T11:31:33.870Z,100142.03
2023-08-11T11:34:01.547Z,100140.72
2023-08-11T11:36:30.839Z,100141.34
2023-08-11T11:38:57.624Z,100135.25
2023-08-11T11:41:27.031Z,100137.97
2023-08-11T11:43:54.024Z,100131.31
2023-08-11T11:46:21.816Z,100136.66
2023-08-11T11:48:50.927Z,100130.19
2023-08-11T11:51:19.052Z,100127.72
2023-08-11T11:53:52.751Z,100132.88
2023-08-11T11:56:19.706Z,100132.06
2023-08-11T11:58:46.950Z,100142.09
2023-08-11T12:01:15.797Z,100137.13
2023-08-11T12:03:44.268Z,100137.19
2023-08-11T12:06:11.114Z,100130.81
2023-08-11T12:08:40.869Z,100128.50
2023-08-11T12:11:10.201Z,100136.09
2023-08-11T12:13:39.219Z,100128.97
2023-08-11T12:16:07.721Z,100125.38
2023-08-11T12:18:35.048Z,100126.56
2023-08-11T12:21:02.262Z,100121.41
2023-08-11T12:23:29.139Z,100125.22
2023-08-11T12:25:56.138Z,100116.28
2023-08-11T12:28:24.407Z,100120.53
2023-08-11T12:30:51.169Z,100124.91
2023-08-11T12:33:20.298Z,100123.94
2023-08-11T12:35:48.112Z,100119.41
2023-08-11T12:38:15.247Z,100112.56
2023-08-11T12:40:42.244Z,100105.63
2023-08-11T12:43:11.356Z,100108.03
2023-08-11T12:45:43.268Z,100106.81
2023-08-11T12:48:10.289Z,100095.13
2023-08-11T12:50:37.737Z,100092.78
2023-08-11T12:53:05.748Z,100099.91
2023-08-11T12:55:33.430Z,100096.44
2023-08-11T12:58:01.189Z,100103.16
2023-08-11T13:00:30.735Z,100095.94
2023-08-11T13:02:58.812Z,100092.22
2023-08-11T13:05:25.682Z,100098.69
2023-08-11T13:07:53.645Z,100096.97
2023-08-11T13:10:20.346Z,100086.38
2023-08-11T13:12:49.051Z,100076.25
2023-08-11T13:15:15.993Z,100085.84
2023-08-11T13:17:44.157Z,100069.88
2023-08-11T13:20:12.775Z,100071.66
2023-08-11T13:22:41.984Z,100074.47
2023-08-11T13:25:09.517Z,100071.88
2023-08-11T13:27:37.453Z,100065.97
2023-08-11T13:30:05.273Z,100075.56
2023-08-11T13:32:32.045Z,100080.50
2023-08-11T13:34:58.846Z,100082.06
2023-08-11T13:37:28.308Z,100071.97
2023-08-11T13:39:54.863Z,100065.59
2023-08-11T13:42:21.554Z,100062.88
2023-08-11T13:44:48.175Z,100060.28
2023-08-11T13:47:14.813Z,100065.03
2023-08-11T13:49:41.615Z,100059.91
2023-08-11T13:52:08.625Z,100056.25
2023-08-11T13:54:37.668Z,100050.47
2023-08-11T13:57:04.333Z,100053.53
2023-08-11T13:59:31.215Z,100050.19
2023-08-11T14:01:58.254Z,100043.22
2023-08-11T14:04:24.967Z,100044.34
2023-08-11T14:06:51.599Z,100051.22
2023-08-11T14:09:18.259Z,100055.25
2023-08-11T14:11:49.479Z,100051.75
2023-08-11T14:14:16.172Z,100040.91
2023-08-11T14:16:43.153Z,100043.59
2023-08-11T14:19:10.088Z,100043.72
2023-08-11T14:21:36.881Z,100038.09
2023-08-11T14:24:07.117Z,100028.25
2023-08-11T14:26:33.869Z,100034.41
2023-08-11T14:29:01.840Z,100037.09
2023-08-11T14:31:28.411Z,100039.50
2023-08-11T14:33:55.104Z,100041.16
2023-08-11T14:36:21.871Z,100037.72
2023-08-11T14:38:48.480Z,100039.69
2023-08-11T14:41:15.060Z,100040.38
2023-08-11T14:43:43.776Z,100036.84
2023-08-11T14:46:11.753Z,100037.19
2023-08-11T14:48:38.458Z,100034.72
2023-08-11T14:51:05.804Z,100040.00
2023-08-11T14:53:32.735Z,100025.69
2023-08-11T14:55:59.680Z,100028.44
2023-08-11T14:58:26.350Z,100025.84
2023-08-11T15:00:53.495Z,100019.34
2023-08-11T15:03:21.714Z,100014.09
2023-08-11T15:05:48.363Z,100026.09
2023-08-11T15:08:14.986Z,100012.22
2023-08-11T15:10:41.808Z,100014.25
2023-08-11T15:13:08.760Z,100012.66
2023-08-11T15:15:35.366Z,100016.94
2023-08-11T15:18:02.081Z,100006.97
2023-08-11T15:20:30.324Z,100003.03
2023-08-11T15:22:57.559Z,100001.16
2023-08-11T15:25:24.125Z,99994.31
2023-08-11T15:27:50.919Z,99997.66
2023-08-11T15:30:17.650Z,99998.22
2023-08-11T15:32:44.313Z,99997.69
2023-08-11T15:35:11.127Z,99997.56
2023-08-11T15:37:39.148Z,99993.53
2023-08-11T15:40:07.263Z,99995.81
2023-08-11T15:42:34.090Z,100004.09
2023-08-11T15:45:00.720Z,99993.31
2023-08-11T15:47:27.474Z,99991.56
2023-08-11T15:49:54.321Z,99984.22
2023-08-11T15:52:21.113Z,99985.31
2023-08-11T15:54:49.066Z,99986.28
2023-08-11T15:57:15.842Z,99982.75
2023-08-11T15:59:42.500Z,99987.97
2023-08-11T16:02:11.026Z,99982.06
2023-08-11T16:04:37.990Z,99983.25
2023-08-11T16:07:05.087Z,99985.78
2023-08-11T16:09:31.908Z,99983.75
2023-08-11T16:11:59.955Z,99982.22
2023-08-11T16:14:26.547Z,99982.81
2023-08-11T16:16:53.251Z,99982.00
2023-08-11T16:19:20.041Z,99980.13
2023-08-11T16:21:46.697Z,99976.06
2023-08-11T16:24:16.285Z,99975.53
2023-08-11T16:26:43.493Z,99970.91
2023-08-11T16:29:11.728Z,99976.41
2023-08-11T16:31:38.575Z,99980.63
2023-08-11T16:34:05.731Z,99975.53
2023-08-11T16:36:32.428Z,99976.94
2023-08-11T16:38:59.036Z,99975.47
2023-08-11T16:41:27.936Z,99969.81
2023-08-11T16:43:54.562Z,99974.75
2023-08-11T16:46:22.618Z,99970.28
2023-08-11T16:48:51.222Z,99975.69
2023-08-11T16:51:17.996Z,99974.91
2023-08-11T16:53:44.546Z,99978.81
2023-08-11T16:56:11.175Z,99966.72
2023-08-11T16:58:37.836Z,99963.97
2023-08-11T17:01:06.588Z,99967.34
2023-08-11T17:03:37.756Z,99959.13
2023-08-11T17:06:04.476Z,99956.88
2023-08-11T17:08:31.394Z,99952.25
2023-08-11T17:10:58.661Z,99958.66
2023-08-11T17:13:25.365Z,99957.91
2023-08-11T17:15:52.140Z,99955.97
2023-08-11T17:18:18.920Z,99951.53
2023-08-11T17:20:46.977Z,99957.81
2023-08-11T17:23:13.769Z,99954.69
2023-08-11T17:25:40.447Z,99951.63
2023-08-11T17:28:07.201Z,99954.03
2023-08-11T17:30:33.828Z,99947.13
2023-08-11T17:33:00.508Z,99956.19
2023-08-11T17:35:27.108Z,99946.56
2023-08-11T17:37:59.971Z,99948.38
2023-08-11T17:40:26.616Z,99949.53
2023-08-11T17:42:56.316Z,99954.06
2023-08-11T17:45:23.377Z,99955.88
2023-08-11T17:47:50.031Z,99957.66
2023-08-11T17:50:17.168Z,99962.28
2023-08-11T17:52:47.374Z,99956.69
2023-08-11T17:55:15.922Z,99949.81
2023-08-11T17:57:42.815Z,99957.16
2023-08-11T18:00:10.551Z,99945.97
2023-08-11T18:02:37.469Z,99947.50
2023-08-11T18:05:04.369Z,99941.47
2023-08-11T18:07:31.126Z,99938.06
2023-08-11T18:09:58.295Z,99939.34
2023-08-11T18:12:26.351Z,99944.53
2023-08-11T18:14:54.014Z,99948.88
2023-08-11T18:17:20.914Z,99945.81
2023-08-11T18:19:47.789Z,99948.22
2023-08-11T18:22:14.473Z,99950.16
2023-08-11T18:24:41.284Z,99947.13
2023-08-11T18:27:08.249Z,99946.91
2023-08-11T18:29:36.327Z,99943.69
2023-08-11T18:32:03.343Z,99948.41
2023-08-11T18:34:29.991Z,99942.16
2023-08-11T18:36:57.033Z,99934.88
2023-08-11T18:39:23.734Z,99943.91
2023-08-11T18:41:50.339Z,99941.94
2023-08-11T18:44:17.099Z,99947.31
2023-08-11T18:46:45.361Z,99949.84
2023-08-11T18:49:12.226Z,99948.53
2023-08-11T18:51:38.888Z,99946.34
2023-08-11T18:54:06.044Z,99945.25
2023-08-11T18:56:32.673Z,99946.72
2023-08-11T18:58:59.381Z,99951.22
2023-08-11T19:01:26.026Z,99947.09
2023-08-11T19:03:55.418Z,99952.69
2023-08-11T19:06:22.150Z,99953.34
2023-08-11T19:08:48.748Z,99949.88
2023-08-11T19:11:15.584Z,99944.47
2023-08-11T19:13:43.207Z,99947.91
2023-08-11T19:16:11.243Z,99935.38
2023-08-11T19:18:37.913Z,99942.91
2023-08-11T19:21:05.933Z,99942.03
2023-08-11T19:23:32.536Z,99945.84
2023-08-11T19:25:59.254Z,99942.78
2023-08-11T19:28:25.926Z,99929.66
2023-08-11T19:30:52.702Z,99936.47
2023-08-11T19:33:19.370Z,99940.34
2023-08-11T19:35:48.943Z,99929.13
2023-08-11T19:38:17.271Z,99934.72
2023-08-11T19:40:45.019Z,99937.72
2023-08-11T19:43:11.909Z,99935.34
2023-08-11T19:45:40.461Z,99923.59
2023-08-11T19:48:07.506Z,99928.59
2023-08-11T19:50:34.290Z,99931.56
2023-08-11T19:53:00.887Z,99928.34
2023-08-11T19:55:28.951Z,99926.13
2023-08-11T19:57:55.709Z,99925.25
2023-08-11T20:00:22.489Z,99927.31
2023-08-11T20:02:50.625Z,99927.31
2023-08-11T20:05:17.949Z,99935.44
2023-08-11T20:07:44.534Z,99927.88
2023-08-11T20:10:11.494Z,99926.78
2023-08-11T20:12:41.919Z,99919.00
2023-08-11T20:15:09.725Z,99920.94
2023-08-11T20:17:36.404Z,99921.13
2023-08-11T20:20:03.780Z,99923.47
2023-08-11T20:22:30.444Z,99925.19
2023-08-11T20:24:57.320Z,99922.28
2023-08-11T20:27:24.163Z,99920.28
2023-08-11T20:29:52.188Z,99929.31
2023-08-11T20:32:18.865Z,99916.63
2023-08-11T20:34:45.491Z,99913.63
2023-08-11T20:37:12.472Z,99920.72
2023-08-11T20:39:39.501Z,99913.22
2023-08-11T20:42:06.123Z,99910.19
2023-08-11T20:44:32.782Z,99912.75
2023-08-11T20:47:00.748Z,99910.78
2023-08-11T20:49:27.334Z,99906.06
2023-08-11T20:51:53.962Z,99913.38
2023-08-11T20:54:20.724Z,99906.28
2023-08-11T20:56:47.350Z,99908.34
2023-08-11T20:59:14.117Z,99902.13
2023-08-11T21:01:40.762Z,99903.16
2023-08-11T21:04:09.569Z,99893.53
2023-08-11T21:06:36.276Z,99899.88
2023-08-11T21:09:03.361Z,99902.34
2023-08-11T21:11:30.137Z,99907.09
2023-08-11T21:13:56.923Z,99955.31
2023-08-11T21:16:23.695Z,99950.47
2023-08-11T21:18:50.355Z,99957.34
2023-08-11T21:21:18.339Z,99964.75
2023-08-11T21:23:45.115Z,99970.72
2023-08-11T21:26:11.736Z,99977.50
2023-08-11T21:28:38.647Z,99981.44
2023-08-11T21:31:17.658Z,99991.22
2023-08-11T21:33:45.056Z,99992.97
2023-08-11T21:36:11.809Z,99996.13
2023-08-11T21:38:40.237Z,99997.22
2023-08-11T21:41:07.179Z,100002.91
2023-08-11T21:43:33.815Z,100003.31
2023-08-11T21:46:00.502Z,100006.69
2023-08-11T21:48:27.220Z,99992.88
2023-08-11T21:50:53.966Z,100004.28
2023-08-11T21:53:23.590Z,100016.38
2023-08-11T21:55:52.718Z,100020.06
2023-08-11T21:58:19.521Z,100019.59
2023-08-11T22:00:46.265Z,100016.00
2023-08-11T22:03:13.173Z,100016.72
2023-08-11T22:05:40.259Z,100025.31
2023-08-11T22:08:06.910Z,100029.81
2023-08-11T22:10:33.615Z,100041.28
2023-08-11T22:13:01.625Z,100037.66
2023-08-11T22:15:28.491Z,100037.16
2023-08-11T22:17:55.141Z,100040.19
2023-08-11T22:20:21.916Z,100033.78
2023-08-11T22:22:48.525Z,100036.00
2023-08-11T22:25:15.248Z,100041.78
2023-08-11T22:27:42.093Z,100038.31
2023-08-11T22:30:11.300Z,100039.88
2023-08-11T22:32:37.926Z,100051.13
2023-08-11T22:35:06.672Z,100055.66
2023-08-11T22:37:33.296Z,100053.41
2023-08-11T22:39:59.966Z,100055.81
2023-08-11T22:42:27.907Z,100055.84
2023-08-11T22:44:55.450Z,100051.66
2023-08-11T22:47:23.848Z,100040.72
2023-08-11T22:49:50.830Z,100050.09
2023-08-11T22:52:17.945Z,100051.16
2023-08-11T22:54:44.536Z,100053.59
2023-08-11T22:57:11.497Z,100051.16
2023-08-11T22:59:38.584Z,100058.25
2023-08-11T23:02:05.362Z,100051.16
2023-08-11T23:04:33.399Z,100048.69
2023-08-11T23:07:00.214Z,100045.78
2023-08-11T23:09:26.794Z,100045.06
2023-08-11T23:11:53.571Z,100047.34
2023-08-11T23:14:20.198Z,100048.22
2023-08-11T23:16:46.882Z,100047.16
2023-08-11T23:19:13.994Z,100046.47
2023-08-11T23:21:42.186Z,100039.34
2023-08-11T23:24:09.378Z,100031.53
2023-08-11T23:26:36.360Z,100031.03
2023-08-11T23:29:03.247Z,100026.53
2023-08-11T23:31:30.062Z,100026.69
2023-08-11T23:33:57.466Z,100031.22
2023-08-11T23:36:24.112Z,100028.44
2023-08-11T23:38:52.145Z,100026.34
2023-08-11T23:41:18.758Z,100022.88
2023-08-11T23:43:45.578Z,100017.66
2023-08-11T23:46:12.224Z,100014.72
2023-08-11T23:48:39.127Z,100010.75
2023-08-11T23:51:05.801Z,100010.56
2023-08-11T23:53:32.573Z,100013.31
2023-08-11T23:56:00.667Z,100006.41
2023-08-11T23:58:27.364Z,100003.44
